createdAt,value
2024-02-17T00:00:09.432Z,6.38
2024-02-17T00:02:36.428Z,6.70
2024-02-17T00:05:04.050Z,7.05
2024-02-17T00:07:31.160Z,7.57
2024-02-17T00:09:58.339Z,6.72
2024-02-17T00:12:25.532Z,6.88
2024-02-17T00:14:52.591Z,6.50
2024-02-17T00:17:20.331Z,7.70
2024-02-17T00:19:48.350Z,7.25
2024-02-17T00:22:17.308Z,7.50
2024-02-17T00:24:44.500Z,7.50
2024-02-17T00:27:11.653Z,8.20
2024-02-17T00:29:38.560Z,7.43
2024-02-17T00:32:05.787Z,7.93
2024-02-17T00:34:33.000Z,8.13
2024-02-17T00:37:00.357Z,7.90
2024-02-17T00:39:27.603Z,8.00
2024-02-17T00:41:55.354Z,8.23
2024-02-17T00:44:25.469Z,8.43
2024-02-17T00:46:53.121Z,8.25
2024-02-17T00:49:20.557Z,8.82
2024-02-17T00:51:47.640Z,8.70
2024-02-17T00:54:14.567Z,8.60
2024-02-17T00:56:41.645Z,8.50
2024-02-17T00:59:08.585Z,8.13
2024-02-17T01:01:39.621Z,8.55
2024-02-17T01:04:08.739Z,8.70
2024-02-17T01:06:36.153Z,9.00
2024-02-17T01:09:03.582Z,8.48
2024-02-17T01:11:30.671Z,8.20
2024-02-17T01:13:57.797Z,8.35
2024-02-17T01:16:24.785Z,8.68
2024-02-17T01:18:51.906Z,8.43
2024-02-17T01:21:19.565Z,8.37
2024-02-17T01:23:46.656Z,7.90
2024-02-17T01:26:13.808Z,8.90
2024-02-17T01:28:40.741Z,8.90
2024-02-17T01:31:07.662Z,9.32
2024-02-17T01:33:34.541Z,9.20
2024-02-17T01:36:01.542Z,9.43
2024-02-17T01:38:28.459Z,8.80
2024-02-17T01:40:55.658Z,9.20
2024-02-17T01:43:22.714Z,9.13
2024-02-17T01:45:50.231Z,9.93
2024-02-17T01:48:17.659Z,10.20
2024-02-17T01:50:45.900Z,10.25
2024-02-17T01:53:12.978Z,10.85
2024-02-17T01:55:40.634Z,10.43
2024-02-17T01:58:08.215Z,11.10
2024-02-17T02:00:35.930Z,12.07
2024-02-17T02:03:03.998Z,11.05
2024-02-17T02:05:31.221Z,11.60
2024-02-17T02:07:58.337Z,11.97
2024-02-17T02:10:25.269Z,12.03
2024-02-17T02:12:52.343Z,11.88
2024-02-17T02:15:24.661Z,12.73
2024-02-17T02:17:54.303Z,13.68
2024-02-17T02:20:22.386Z,14.50
2024-02-17T02:22:49.380Z,13.70
2024-02-17T02:25:26.323Z,14.63
2024-02-17T02:27:57.378Z,14.55
2024-02-17T02:30:24.630Z,15.03
2024-02-17T02:32:58.808Z,14.90
2024-02-17T02:35:26.009Z,16.08
2024-02-17T02:37:52.960Z,16.15
2024-02-17T02:40:19.935Z,15.77
2024-02-17T02:42:47.225Z,16.00
2024-02-17T02:45:14.401Z,15.88
2024-02-17T02:47:41.584Z,16.30
2024-02-17T02:50:09.902Z,16.45
2024-02-17T02:52:37.085Z,17.13
2024-02-17T02:55:04.145Z,17.83
2024-02-17T02:57:31.176Z,16.73
2024-02-17T02:59:59.259Z,17.30
2024-02-17T03:02:26.577Z,17.30
2024-02-17T03:04:54.836Z,16.63
2024-02-17T03:07:22.370Z,17.17
2024-02-17T03:09:49.458Z,16.63
2024-02-17T03:12:16.583Z,16.33
2024-02-17T03:14:43.608Z,16.87
2024-02-17T03:17:10.734Z,16.60
2024-02-17T03:19:37.823Z,16.97
2024-02-17T03:22:04.858Z,16.38
2024-02-17T03:24:31.919Z,16.35
2024-02-17T03:26:58.986Z,16.50
2024-02-17T03:29:25.939Z,16.20
2024-02-17T03:31:52.872Z,15.50
2024-02-17T03:34:19.881Z,15.93
2024-02-17T03:36:47.200Z,15.98
2024-02-17T03:39:16.577Z,17.10
2024-02-17T03:41:43.635Z,16.77
2024-02-17T03:44:10.582Z,16.48
2024-02-17T03:46:37.476Z,16.75
2024-02-17T03:49:04.540Z,16.30
2024-02-17T03:51:31.650Z,17.85
2024-02-17T03:53:58.641Z,17.17
2024-02-17T03:56:26.239Z,18.50
2024-02-17T03:58:54.029Z,17.25
2024-02-17T04:01:21.923Z,16.63
2024-02-17T04:03:48.818Z,17.30
2024-02-17T04:06:15.940Z,17.70
2024-02-17T04:08:42.863Z,17.33
2024-02-17T04:11:10.643Z,17.35
2024-02-17T04:13:37.684Z,16.80
2024-02-17T04:16:04.796Z,18.10
2024-02-17T04:18:31.840Z,17.15
2024-02-17T04:20:58.839Z,16.97
2024-02-17T04:23:25.825Z,17.50
2024-02-17T04:25:52.712Z,17.17
2024-02-17T04:28:19.717Z,17.20
2024-02-17T04:30:46.649Z,16.83
2024-02-17T04:33:13.776Z,16.70
2024-02-17T04:35:40.841Z,16.95
2024-02-17T04:38:10.783Z,16.60
2024-02-17T04:40:37.801Z,17.42
2024-02-17T04:43:04.909Z,18.42
2024-02-17T04:45:32.064Z,17.98
2024-02-17T04:47:59.030Z,17.57
2024-02-17T04:50:25.950Z,17.63
2024-02-17T04:52:53.360Z,18.00
2024-02-17T04:55:20.233Z,17.40
2024-02-17T04:57:47.330Z,18.48
2024-02-17T05:00:14.739Z,17.80
2024-02-17T05:02:41.668Z,18.30
2024-02-17T05:05:09.292Z,18.73
2024-02-17T05:07:36.245Z,19.35
2024-02-17T05:10:04.145Z,19.60
2024-02-17T05:12:31.276Z,17.77
2024-02-17T05:14:58.284Z,18.38
2024-02-17T05:17:25.467Z,18.45
2024-02-17T05:19:53.177Z,18.35
2024-02-17T05:22:20.228Z,18.63
2024-02-17T05:24:47.317Z,18.30
2024-02-17T05:27:14.865Z,16.77
2024-02-17T05:29:42.291Z,18.17
2024-02-17T05:32:09.497Z,17.50
2024-02-17T05:34:37.980Z,18.25
2024-02-17T05:37:06.008Z,18.42
2024-02-17T05:39:33.948Z,17.42
2024-02-17T05:42:01.423Z,18.03
2024-02-17T05:44:29.215Z,18.33
2024-02-17T05:46:56.452Z,17.77
2024-02-17T05:49:24.421Z,16.45
2024-02-17T05:51:53.010Z,17.02
2024-02-17T05:54:21.088Z,16.90
2024-02-17T05:56:50.262Z,17.80
2024-02-17T05:59:17.280Z,16.77
2024-02-17T06:01:44.453Z,17.20
2024-02-17T06:04:11.867Z,17.33
2024-02-17T06:06:38.943Z,16.65
2024-02-17T06:09:05.999Z,17.77
2024-02-17T06:11:33.351Z,17.27
2024-02-17T06:14:00.433Z,17.42
2024-02-17T06:16:28.698Z,17.45
2024-02-17T06:19:14.566Z,19.15
2024-02-17T06:21:41.603Z,17.52
2024-02-17T06:24:08.685Z,17.60
2024-02-17T06:26:37.165Z,17.60
2024-02-17T06:29:07.360Z,17.40
2024-02-17T06:31:38.025Z,16.77
2024-02-17T06:34:07.379Z,16.63
2024-02-17T06:36:34.782Z,17.17
2024-02-17T06:39:01.693Z,16.98
2024-02-17T06:41:28.793Z,15.45
2024-02-17T06:43:55.963Z,17.15
2024-02-17T06:46:22.888Z,15.95
2024-02-17T06:48:52.694Z,16.52
2024-02-17T06:51:21.517Z,17.88
2024-02-17T06:53:49.008Z,16.27
2024-02-17T06:56:16.816Z,16.38
2024-02-17T06:58:43.829Z,16.27
2024-02-17T07:01:11.370Z,17.27
2024-02-17T07:03:39.096Z,16.63
2024-02-17T07:06:06.879Z,16.30
2024-02-17T07:08:34.209Z,17.90
2024-02-17T07:11:01.695Z,15.73
2024-02-17T07:13:29.065Z,16.63
2024-02-17T07:15:56.165Z,17.42
2024-02-17T07:18:23.492Z,17.20
2024-02-17T07:20:53.525Z,17.35
2024-02-17T07:23:22.498Z,18.50
2024-02-17T07:25:49.615Z,17.27
2024-02-17T07:28:41.869Z,17.67
2024-02-17T07:31:11.718Z,17.65
2024-02-17T07:33:39.515Z,17.57
2024-02-17T07:36:06.878Z,17.20
2024-02-17T07:38:33.903Z,18.50
2024-02-17T07:41:00.793Z,17.38
2024-02-17T07:43:27.668Z,16.97
2024-02-17T07:45:54.615Z,17.73
2024-02-17T07:48:21.853Z,16.98
2024-02-17T07:50:49.013Z,16.88
2024-02-17T07:53:15.891Z,17.50
2024-02-17T07:55:43.239Z,17.57
2024-02-17T07:58:10.092Z,15.73
2024-02-17T08:00:37.350Z,17.48
2024-02-17T08:03:04.494Z,17.05
2024-02-17T08:05:31.635Z,16.77
2024-02-17T08:07:58.638Z,17.80
2024-02-17T08:10:25.684Z,17.88
2024-02-17T08:12:52.838Z,17.63
2024-02-17T08:15:19.951Z,17.92
2024-02-17T08:17:47.300Z,18.17
2024-02-17T08:20:14.679Z,18.13
2024-02-17T08:22:41.725Z,18.10
2024-02-17T08:25:10.422Z,17.65
2024-02-17T08:27:37.732Z,17.55
2024-02-17T08:30:05.525Z,16.80
2024-02-17T08:32:33.953Z,17.13
2024-02-17T08:35:01.795Z,16.40
2024-02-17T08:37:28.938Z,16.60
2024-02-17T08:39:55.828Z,15.90
2024-02-17T08:42:23.084Z,16.50
2024-02-17T08:44:54.056Z,16.80
2024-02-17T08:47:22.423Z,17.35
2024-02-17T08:49:50.430Z,16.75
2024-02-17T08:52:17.719Z,17.70
2024-02-17T08:54:44.746Z,16.25
2024-02-17T08:57:11.707Z,15.55
2024-02-17T08:59:38.785Z,16.45
2024-02-17T09:02:05.827Z,16.02
2024-02-17T09:04:32.764Z,16.17
2024-02-17T09:07:00.990Z,15.95
2024-02-17T09:09:29.764Z,15.18
2024-02-17T09:11:56.758Z,15.65
2024-02-17T09:14:23.717Z,15.50
2024-02-17T09:16:50.655Z,16.20
2024-02-17T09:19:17.662Z,16.23
2024-02-17T09:21:44.699Z,15.73
2024-02-17T09:24:11.990Z,15.73
2024-02-17T09:26:38.972Z,16.30
2024-02-17T09:29:05.907Z,15.68
2024-02-17T09:31:35.349Z,15.05
2024-02-17T09:34:03.212Z,15.80
2024-02-17T09:36:31.257Z,15.05
2024-02-17T09:38:58.161Z,15.35
2024-02-17T09:41:25.081Z,16.10
2024-02-17T09:43:52.195Z,15.55
2024-02-17T09:46:19.206Z,15.95
2024-02-17T09:48:46.573Z,15.13
2024-02-17T09:51:14.850Z,15.52
2024-02-17T09:53:41.956Z,16.45
2024-02-17T09:56:08.982Z,15.90
2024-02-17T09:58:36.329Z,15.57
2024-02-17T10:01:03.764Z,15.65
2024-02-17T10:03:31.841Z,15.82
2024-02-17T10:06:14.361Z,16.95
2024-02-17T10:08:42.794Z,16.98
2024-02-17T10:11:13.033Z,15.02
2024-02-17T10:13:42.215Z,16.73
2024-02-17T10:16:14.490Z,16.43
2024-02-17T10:18:45.823Z,16.10
2024-02-17T10:21:13.554Z,15.80
2024-02-17T10:23:40.690Z,15.27
2024-02-17T10:26:08.117Z,15.10
2024-02-17T10:28:35.481Z,14.82
2024-02-17T10:31:06.688Z,13.88
2024-02-17T10:33:33.798Z,13.13
2024-02-17T10:36:02.009Z,12.55
2024-02-17T10:38:30.739Z,11.82
2024-02-17T10:40:57.710Z,10.88
2024-02-17T10:43:24.696Z,10.38
2024-02-17T10:45:56.699Z,11.23
2024-02-17T10:48:27.311Z,9.98
2024-02-17T10:50:54.641Z,10.40
2024-02-17T10:53:44.057Z,8.70
2024-02-17T10:56:16.851Z,8.27
2024-02-17T10:58:47.804Z,9.75
2024-02-17T11:01:18.384Z,9.23
2024-02-17T11:03:46.977Z,8.68
2024-02-17T11:06:18.617Z,9.13
2024-02-17T11:08:45.873Z,9.63
2024-02-17T11:11:25.749Z,9.18
2024-02-17T11:13:54.365Z,9.80
2024-02-17T11:16:21.437Z,9.75
2024-02-17T11:18:54.482Z,10.20
2024-02-17T11:21:27.114Z,9.60
2024-02-17T11:23:59.462Z,10.03
2024-02-17T11:26:33.775Z,9.00
2024-02-17T11:29:07.684Z,10.20
2024-02-17T11:31:34.603Z,10.82
2024-02-17T11:34:04.067Z,10.30
2024-02-17T11:36:35.142Z,9.70
2024-02-17T11:39:02.763Z,9.20
2024-02-17T11:41:30.252Z,10.05
2024-02-17T11:43:57.394Z,7.30
2024-02-17T11:46:24.951Z,8.73
2024-02-17T11:48:52.874Z,8.90
2024-02-17T11:51:27.255Z,8.65
2024-02-17T11:53:57.463Z,5.43
2024-02-17T11:56:25.879Z,7.70
2024-02-17T11:58:55.139Z,7.40
2024-02-17T12:01:22.457Z,5.63
2024-02-17T12:03:49.730Z,7.07
2024-02-17T12:06:17.050Z,7.70
2024-02-17T12:08:44.099Z,6.80
2024-02-17T12:11:11.453Z,6.25
2024-02-17T12:13:38.505Z,5.43
2024-02-17T12:16:11.586Z,5.80
2024-02-17T12:18:40.807Z,5.50
2024-02-17T12:21:11.337Z,5.70
2024-02-17T12:23:41.298Z,5.85
2024-02-17T12:26:16.914Z,5.75
2024-02-17T12:28:52.626Z,5.53
2024-02-17T12:31:21.083Z,5.22
2024-02-17T12:33:49.595Z,5.05
2024-02-17T12:36:18.706Z,5.53
2024-02-17T12:38:45.732Z,5.50
2024-02-17T12:41:15.525Z,5.10
2024-02-17T12:43:48.342Z,5.47
2024-02-17T12:46:20.444Z,5.03
2024-02-17T12:48:50.555Z,5.00
2024-02-17T12:51:20.344Z,4.83
2024-02-17T12:53:49.246Z,4.95
2024-02-17T12:56:22.304Z,4.47
2024-02-17T12:58:52.032Z,4.32
2024-02-17T13:01:20.272Z,4.13
2024-02-17T13:03:47.929Z,5.10
2024-02-17T13:06:15.856Z,4.25
2024-02-17T13:08:43.632Z,4.75
2024-02-17T13:11:10.793Z,5.10
2024-02-17T13:13:38.645Z,4.53
2024-02-17T13:16:06.212Z,4.18
2024-02-17T13:18:35.878Z,3.63
2024-02-17T13:21:04.215Z,4.20
2024-02-17T13:23:31.365Z,3.80
2024-02-17T13:25:58.390Z,3.45
2024-02-17T13:28:25.332Z,3.45
2024-02-17T13:30:53.733Z,3.80
2024-02-17T13:33:21.037Z,3.63
2024-02-17T13:35:49.061Z,4.07
2024-02-17T13:38:25.054Z,4.43
2024-02-17T13:40:57.087Z,4.72
2024-02-17T13:43:24.081Z,4.88
2024-02-17T13:45:52.176Z,4.55
2024-02-17T13:48:19.889Z,4.63
2024-02-17T13:50:48.511Z,5.20
2024-02-17T13:53:15.904Z,4.88
2024-02-17T13:55:44.381Z,4.70
2024-02-17T13:58:12.246Z,5.27
2024-02-17T14:00:40.743Z,4.70
2024-02-17T14:03:08.657Z,4.22
2024-02-17T14:05:35.908Z,3.78
2024-02-17T14:08:02.879Z,3.80
2024-02-17T14:10:29.795Z,4.03
2024-02-17T14:12:56.945Z,3.83
2024-02-17T14:15:24.087Z,4.40
2024-02-17T14:17:51.152Z,4.45
2024-02-17T14:20:18.399Z,3.83
2024-02-17T14:22:45.468Z,3.88
2024-02-17T14:25:14.353Z,3.58
2024-02-17T14:27:41.525Z,4.18
2024-02-17T14:30:09.677Z,4.57
2024-02-17T14:32:36.710Z,4.47
2024-02-17T14:35:06.231Z,4.00
2024-02-17T14:37:33.361Z,4.43
2024-02-17T14:40:00.508Z,4.30
2024-02-17T14:42:27.708Z,4.10
2024-02-17T14:44:54.636Z,4.22
2024-02-17T14:47:24.298Z,4.17
2024-02-17T14:49:53.455Z,3.95
2024-02-17T14:52:20.988Z,4.07
2024-02-17T14:54:48.513Z,4.00
2024-02-17T14:57:15.468Z,4.18
2024-02-17T14:59:42.409Z,4.05
2024-02-17T15:02:09.349Z,4.03
2024-02-17T15:04:36.443Z,3.85
2024-02-17T15:07:03.943Z,3.70
2024-02-17T15:09:31.844Z,3.78
2024-02-17T15:11:59.587Z,3.63
2024-02-17T15:14:28.948Z,3.70
2024-02-17T15:16:56.609Z,3.92
2024-02-17T15:19:24.059Z,3.35
2024-02-17T15:21:51.640Z,2.90
2024-02-17T15:24:18.867Z,3.20
2024-02-17T15:26:46.510Z,3.33
2024-02-17T15:29:13.569Z,2.90
2024-02-17T15:31:40.439Z,3.35
2024-02-17T15:34:07.458Z,2.83
2024-02-17T15:36:34.753Z,3.50
2024-02-17T15:39:01.697Z,3.63
2024-02-17T15:41:28.692Z,3.83
2024-02-17T15:43:55.768Z,3.15
2024-02-17T15:46:23.470Z,3.40
2024-02-17T15:48:50.849Z,3.72
2024-02-17T15:51:18.129Z,2.97
2024-02-17T15:53:45.009Z,3.08
2024-02-17T15:56:12.925Z,2.72
2024-02-17T15:58:40.219Z,2.47
2024-02-17T16:01:08.101Z,2.70
2024-02-17T16:03:35.684Z,2.60
2024-02-17T16:06:09.875Z,2.60
2024-02-17T16:08:38.622Z,2.67
2024-02-17T16:11:06.490Z,2.53
2024-02-17T16:13:34.550Z,2.53
2024-02-17T16:16:01.747Z,2.40
2024-02-17T16:18:31.560Z,2.00
2024-02-17T16:21:02.185Z,2.60
2024-02-17T16:23:32.348Z,2.20
2024-02-17T16:25:59.284Z,2.55
2024-02-17T16:28:26.325Z,2.33
2024-02-17T16:30:55.362Z,2.70
2024-02-17T16:33:25.387Z,2.50
2024-02-17T16:35:52.419Z,3.63
2024-02-17T16:38:19.265Z,4.65
2024-02-17T16:40:46.214Z,5.03
2024-02-17T16:43:13.129Z,5.80
2024-02-17T16:45:40.333Z,6.57
2024-02-17T16:48:08.293Z,13.77
2024-02-17T16:50:35.296Z,8.95
2024-02-17T16:53:02.200Z,5.05
2024-02-17T16:55:29.562Z,4.22
2024-02-17T16:57:56.735Z,3.10
2024-02-17T17:00:24.137Z,2.37
2024-02-17T17:02:51.517Z,3.10
2024-02-17T17:05:19.035Z,2.95
2024-02-17T17:07:46.116Z,2.75
2024-02-17T17:10:13.646Z,2.90
2024-02-17T17:12:40.845Z,2.85
2024-02-17T17:15:09.739Z,2.37
2024-02-17T17:17:37.053Z,2.73
2024-02-17T17:20:05.091Z,3.10
2024-02-17T17:25:03.528Z,6.45
2024-02-17T17:27:31.286Z,3.20
2024-02-17T17:29:58.597Z,2.83
2024-02-17T17:32:25.653Z,3.13
2024-02-17T17:34:52.714Z,2.50
2024-02-17T17:37:20.612Z,3.17
2024-02-17T17:39:47.601Z,2.90
2024-02-17T17:42:14.696Z,3.13
2024-02-17T17:44:41.583Z,3.47
2024-02-17T17:47:08.439Z,3.53
2024-02-17T17:49:35.891Z,3.78
2024-02-17T17:52:03.186Z,4.00
2024-02-17T17:54:30.202Z,3.60
2024-02-17T17:56:57.100Z,3.97
2024-02-17T17:59:23.937Z,4.80
2024-02-17T18:01:50.855Z,6.63
2024-02-17T18:04:17.884Z,9.75
2024-02-17T18:06:45.036Z,8.38
2024-02-17T18:09:12.161Z,8.02
2024-02-17T18:11:39.840Z,7.28
2024-02-17T18:14:06.720Z,6.15
2024-02-17T18:16:33.630Z,6.03
2024-02-17T18:19:00.854Z,6.18
2024-02-17T18:21:27.904Z,6.00
2024-02-17T18:23:54.840Z,6.95
2024-02-17T18:26:21.710Z,6.70
2024-02-17T18:28:48.610Z,6.72
2024-02-17T18:31:15.546Z,7.60
2024-02-17T18:33:44.756Z,6.40
2024-02-17T18:36:18.171Z,5.53
2024-02-17T18:38:45.875Z,5.90
2024-02-17T18:41:14.602Z,5.85
2024-02-17T18:43:43.623Z,5.80
2024-02-17T18:46:11.720Z,5.60
2024-02-17T18:48:39.292Z,5.40
2024-02-17T18:51:08.224Z,5.88
2024-02-17T18:53:37.258Z,6.30
2024-02-17T18:56:04.439Z,5.38
2024-02-17T18:58:31.686Z,5.60
2024-02-17T19:00:58.777Z,5.00
2024-02-17T19:03:25.911Z,5.32
2024-02-17T19:05:52.836Z,6.10
2024-02-17T19:08:19.875Z,6.28
2024-02-17T19:10:46.961Z,6.03
2024-02-17T19:13:14.639Z,6.18
2024-02-17T19:15:41.767Z,6.10
2024-02-17T19:18:08.900Z,6.70
2024-02-17T19:20:35.932Z,6.22
2024-02-17T19:23:08.179Z,6.38
2024-02-17T19:25:36.530Z,7.43
2024-02-17T19:28:04.059Z,8.80
2024-02-17T19:30:31.498Z,9.98
2024-02-17T19:32:58.825Z,10.52
2024-02-17T19:35:25.958Z,10.90
2024-02-17T19:37:53.002Z,10.73
2024-02-17T19:40:20.905Z,10.30
2024-02-17T19:42:48.870Z,9.70
2024-02-17T19:45:15.892Z,10.35
2024-02-17T19:47:43.180Z,9.88
2024-02-17T19:50:11.100Z,8.90
2024-02-17T19:52:38.985Z,8.77
2024-02-17T19:55:06.725Z,7.72
2024-02-17T19:57:35.476Z,7.30
2024-02-17T20:00:03.645Z,7.95
2024-02-17T20:02:31.900Z,8.15
2024-02-17T20:04:59.659Z,8.00
2024-02-17T20:07:28.089Z,8.27
2024-02-17T20:09:55.810Z,8.27
2024-02-17T20:12:26.785Z,9.07
2024-02-17T20:14:54.382Z,8.63
2024-02-17T20:17:29.057Z,9.00
2024-02-17T20:20:04.178Z,9.57
2024-02-17T20:22:31.310Z,9.90
2024-02-17T20:24:59.170Z,10.20
2024-02-17T20:27:28.367Z,11.80
2024-02-17T20:29:55.733Z,11.18
2024-02-17T20:32:22.700Z,10.55
2024-02-17T20:34:49.987Z,10.40
2024-02-17T20:37:17.199Z,11.45
2024-02-17T20:39:44.376Z,12.20
2024-02-17T20:42:11.931Z,11.35
2024-02-17T20:44:43.775Z,11.90
2024-02-17T20:47:10.644Z,12.23
2024-02-17T20:49:38.099Z,12.38
2024-02-17T20:52:05.870Z,12.10
2024-02-17T20:54:33.609Z,11.65
2024-02-17T20:57:05.420Z,10.63
2024-02-17T20:59:32.762Z,11.20
2024-02-17T21:01:59.824Z,12.55
2024-02-17T21:04:31.086Z,12.05
2024-02-17T21:06:59.069Z,11.68
2024-02-17T21:09:26.271Z,11.05
2024-02-17T21:11:53.476Z,11.20
2024-02-17T21:14:20.358Z,11.07
2024-02-17T21:16:53.803Z,10.95
2024-02-17T21:19:20.767Z,11.30
2024-02-17T21:21:47.689Z,11.52
2024-02-17T21:24:14.545Z,11.32
2024-02-17T21:26:41.429Z,10.97
2024-02-17T21:29:08.532Z,10.73
2024-02-17T21:31:35.798Z,10.40
2024-02-17T21:34:02.830Z,10.02
2024-02-17T21:36:30.015Z,10.27
2024-02-17T21:38:57.045Z,9.95
2024-02-17T21:41:23.993Z,11.00
2024-02-17T21:43:50.889Z,10.63
2024-02-17T21:46:18.062Z,10.50
2024-02-17T21:48:45.234Z,11.05
2024-02-17T21:51:17.491Z,11.07
2024-02-17T21:53:45.361Z,10.45
2024-02-17T21:56:12.380Z,10.32
2024-02-17T21:58:39.338Z,9.88
2024-02-17T22:01:06.818Z,11.20
2024-02-17T22:03:34.115Z,11.38
2024-02-17T22:06:01.321Z,11.27
2024-02-17T22:08:29.334Z,11.60
2024-02-17T22:10:56.316Z,11.10
2024-02-17T22:13:23.273Z,11.30
2024-02-17T22:15:50.338Z,11.90
2024-02-17T22:18:17.512Z,13.05
2024-02-17T22:20:44.964Z,12.90
2024-02-17T22:23:13.406Z,12.02
2024-02-17T22:25:41.847Z,12.25
2024-02-17T22:28:10.162Z,12.60
2024-02-17T22:30:37.107Z,12.35
2024-02-17T22:33:04.475Z,12.90
2024-02-17T22:35:31.646Z,12.90
2024-02-17T22:38:03.611Z,13.00
2024-02-17T22:40:32.399Z,12.80
2024-02-17T22:43:01.619Z,13.00
2024-02-17T22:45:30.130Z,13.38
2024-02-17T22:47:57.520Z,12.63
2024-02-17T22:50:24.549Z,12.90
2024-02-17T22:52:51.536Z,12.43
2024-02-17T22:55:18.452Z,11.60
2024-02-17T22:57:45.949Z,11.63
2024-02-17T23:00:22.934Z,12.25
2024-02-17T23:02:51.274Z,11.32
2024-02-17T23:05:20.365Z,11.23
2024-02-17T23:07:47.898Z,11.13
2024-02-17T23:10:15.242Z,11.18
2024-02-17T23:12:42.412Z,11.20
2024-02-17T23:15:10.932Z,12.17
2024-02-17T23:17:39.074Z,11.43
2024-02-17T23:20:07.643Z,11.82
2024-02-17T23:22:35.184Z,12.00
2024-02-17T23:25:02.351Z,12.27
2024-02-17T23:27:29.542Z,11.13
2024-02-17T23:29:56.519Z,11.23
2024-02-17T23:32:23.432Z,10.70
2024-02-17T23:34:50.904Z,11.55
2024-02-17T23:37:18.038Z,11.30
2024-02-17T23:39:46.692Z,10.88
2024-02-17T23:42:13.876Z,10.23
2024-02-17T23:44:40.832Z,10.77
2024-02-17T23:47:07.833Z,10.88
2024-02-17T23:49:35.439Z,11.10
2024-02-17T23:52:03.779Z,11.50
2024-02-17T23:54:31.012Z,11.05
2024-02-17T23:56:59.069Z,11.82
2024-02-17T23:59:26.173Z,11.85
